createdAt,value
2023-03-03T00:02:05.578Z,22.53
2023-03-03T00:04:32.072Z,20.33
2023-03-03T00:06:58.536Z,21.60
2023-03-03T00:09:25.081Z,20.80
2023-03-03T00:11:51.556Z,20.53
2023-03-03T00:14:18.061Z,21.50
2023-03-03T00:16:44.538Z,21.00
2023-03-03T00:19:11.025Z,20.03
2023-03-03T00:21:37.564Z,22.73
2023-03-03T00:24:04.048Z,21.17
2023-03-03T00:26:30.582Z,21.80
2023-03-03T00:28:57.327Z,20.80
2023-03-03T00:31:23.828Z,21.03
2023-03-03T00:33:54.465Z,19.80
2023-03-03T00:36:21.679Z,19.73
2023-03-03T00:38:48.283Z,20.80
2023-03-03T00:41:14.791Z,19.20
2023-03-03T00:43:42.093Z,19.63
2023-03-03T00:46:08.839Z,21.33
2023-03-03T00:48:35.371Z,19.27
2023-03-03T00:51:01.864Z,19.37
2023-03-03T00:53:28.406Z,18.83
2023-03-03T00:55:54.991Z,19.47
2023-03-03T00:58:21.743Z,21.33
2023-03-03T01:00:48.296Z,19.40
2023-03-03T01:03:14.746Z,19.87
2023-03-03T01:05:41.260Z,19.00
2023-03-03T01:08:07.737Z,19.77
2023-03-03T01:10:34.256Z,19.87
2023-03-03T01:13:00.826Z,19.07
2023-03-03T01:15:27.329Z,19.83
2023-03-03T01:17:53.794Z,21.17
2023-03-03T01:20:20.328Z,19.40
2023-03-03T01:22:46.859Z,17.67
2023-03-03T01:25:13.536Z,19.63
2023-03-03T01:27:40.225Z,18.87
2023-03-03T01:30:06.863Z,17.20
2023-03-03T01:32:33.417Z,17.70
2023-03-03T01:34:59.952Z,18.70
2023-03-03T01:37:26.459Z,17.13
2023-03-03T01:39:52.946Z,17.97
2023-03-03T01:42:19.474Z,18.33
2023-03-03T01:44:45.934Z,18.80
2023-03-03T01:47:12.730Z,17.03
2023-03-03T01:49:39.195Z,17.70
2023-03-03T01:52:05.667Z,17.63
2023-03-03T01:54:32.162Z,17.43
2023-03-03T01:56:58.651Z,17.53
2023-03-03T01:59:25.158Z,16.60
2023-03-03T02:01:51.686Z,16.07
2023-03-03T02:04:18.177Z,17.20
2023-03-03T02:06:44.780Z,17.40
2023-03-03T02:09:11.465Z,15.63
2023-03-03T02:11:38.122Z,16.90
2023-03-03T02:14:04.609Z,18.07
2023-03-03T02:16:31.219Z,16.67
2023-03-03T02:18:57.727Z,15.87
2023-03-03T02:21:24.216Z,15.90
2023-03-03T02:23:51.308Z,18.80
2023-03-03T02:26:17.816Z,15.47
2023-03-03T02:28:44.329Z,19.43
2023-03-03T02:31:13.103Z,16.97
2023-03-03T02:33:40.759Z,16.73
2023-03-03T02:36:07.357Z,15.90
2023-03-03T02:38:34.872Z,16.53
2023-03-03T02:41:01.401Z,14.20
2023-03-03T02:43:27.919Z,17.53
2023-03-03T02:45:54.431Z,17.63
2023-03-03T02:48:20.978Z,17.73
2023-03-03T02:50:47.461Z,16.63
2023-03-03T02:53:13.932Z,16.17
2023-03-03T02:55:40.445Z,16.40
2023-03-03T02:58:06.972Z,18.30
2023-03-03T03:00:33.454Z,16.37
2023-03-03T03:03:00.092Z,15.63
2023-03-03T03:05:26.556Z,16.30
2023-03-03T03:07:53.059Z,15.90
2023-03-03T03:10:19.533Z,17.40
2023-03-03T03:12:46.076Z,17.43
2023-03-03T03:15:12.593Z,16.63
2023-03-03T03:17:39.083Z,18.80
2023-03-03T03:20:05.584Z,18.10
2023-03-03T03:22:32.104Z,16.90
2023-03-03T03:24:58.864Z,15.57
2023-03-03T03:27:25.460Z,17.30
2023-03-03T03:29:51.912Z,15.43
2023-03-03T03:32:18.487Z,16.17
2023-03-03T03:34:44.976Z,16.30
2023-03-03T03:37:11.513Z,16.33
2023-03-03T03:39:37.972Z,16.20
2023-03-03T03:42:04.483Z,16.93
2023-03-03T03:44:31.060Z,13.37
2023-03-03T03:46:57.593Z,13.87
2023-03-03T03:49:24.193Z,13.47
2023-03-03T03:51:50.691Z,13.80
2023-03-03T03:54:17.231Z,14.27
2023-03-03T03:56:43.696Z,15.27
2023-03-03T03:59:10.221Z,16.07
2023-03-03T04:01:36.795Z,14.90
2023-03-03T04:04:04.948Z,16.00
2023-03-03T04:06:31.459Z,14.93
2023-03-03T04:08:57.961Z,14.40
2023-03-03T04:11:24.678Z,14.37
2023-03-03T04:13:51.247Z,16.03
2023-03-03T04:16:17.704Z,15.60
2023-03-03T04:18:46.461Z,16.20
2023-03-03T04:21:13.453Z,17.10
2023-03-03T04:23:39.981Z,13.33
2023-03-03T04:26:06.472Z,14.17
2023-03-03T04:28:33.013Z,14.80
2023-03-03T04:30:59.554Z,14.13
2023-03-03T04:33:26.091Z,13.03
2023-03-03T04:35:52.825Z,13.77
2023-03-03T04:38:19.328Z,15.27
2023-03-03T04:40:45.830Z,14.00
2023-03-03T04:43:12.311Z,15.07
2023-03-03T04:45:38.857Z,15.33
2023-03-03T04:48:05.353Z,16.10
2023-03-03T04:50:31.975Z,13.27
2023-03-03T04:52:58.485Z,12.23
2023-03-03T04:55:24.967Z,14.87
2023-03-03T04:57:51.647Z,13.20
2023-03-03T05:00:18.138Z,12.90
2023-03-03T05:02:44.693Z,15.07
2023-03-03T05:05:11.529Z,13.17
2023-03-03T05:07:38.051Z,12.93
2023-03-03T05:10:04.511Z,13.83
2023-03-03T05:12:30.966Z,13.07
2023-03-03T05:14:57.512Z,14.40
2023-03-03T05:17:23.982Z,14.60
2023-03-03T05:19:50.458Z,13.90
2023-03-03T05:22:16.989Z,13.57
2023-03-03T05:24:43.813Z,13.00
2023-03-03T05:27:11.783Z,15.83
2023-03-03T05:29:38.257Z,14.23
2023-03-03T05:32:04.798Z,11.17
2023-03-03T05:34:31.368Z,12.00
2023-03-03T05:36:57.836Z,16.73
2023-03-03T05:39:24.391Z,14.40
2023-03-03T05:41:50.926Z,14.83
2023-03-03T05:44:19.604Z,14.23
2023-03-03T05:46:47.096Z,12.50
2023-03-03T05:49:13.662Z,13.83
2023-03-03T05:51:40.186Z,12.80
2023-03-03T05:54:06.677Z,13.97
2023-03-03T05:56:33.190Z,13.53
2023-03-03T05:58:59.693Z,13.93
2023-03-03T06:01:27.001Z,13.10
2023-03-03T06:03:53.646Z,13.73
2023-03-03T06:06:20.170Z,14.37
2023-03-03T06:08:46.714Z,13.33
2023-03-03T06:11:13.635Z,13.47
2023-03-03T06:13:41.276Z,11.77
2023-03-03T06:16:08.078Z,12.60
2023-03-03T06:18:34.642Z,12.83
2023-03-03T06:21:01.169Z,11.90
2023-03-03T06:23:27.646Z,9.73
2023-03-03T06:25:54.170Z,12.83
2023-03-03T06:28:20.705Z,12.23
2023-03-03T06:30:47.227Z,12.00
2023-03-03T06:33:13.699Z,12.63
2023-03-03T06:35:40.261Z,11.87
2023-03-03T06:38:06.797Z,12.40
2023-03-03T06:40:33.303Z,11.93
2023-03-03T06:42:59.822Z,12.10
2023-03-03T06:45:26.378Z,12.47
2023-03-03T06:47:52.943Z,12.87
2023-03-03T06:50:19.437Z,13.53
2023-03-03T06:52:45.972Z,11.57
2023-03-03T06:55:12.618Z,12.47
2023-03-03T06:57:39.522Z,11.57
2023-03-03T07:00:06.027Z,13.27
2023-03-03T07:02:32.552Z,12.50
2023-03-03T07:04:59.089Z,13.50
2023-03-03T07:07:25.641Z,13.50
2023-03-03T07:09:52.131Z,12.60
2023-03-03T07:12:18.667Z,12.27
2023-03-03T07:14:45.197Z,12.07
2023-03-03T07:17:11.718Z,11.50
2023-03-03T07:19:40.092Z,11.90
2023-03-03T07:22:06.560Z,11.40
2023-03-03T07:24:34.189Z,11.27
2023-03-03T07:27:01.012Z,12.10
2023-03-03T07:29:27.594Z,11.53
2023-03-03T07:31:54.206Z,11.93
2023-03-03T07:34:21.516Z,9.37
2023-03-03T07:36:48.051Z,11.43
2023-03-03T07:39:14.521Z,12.10
2023-03-03T07:41:41.060Z,10.53
2023-03-03T07:44:07.631Z,9.40
2023-03-03T07:46:34.198Z,8.30
2023-03-03T07:49:00.700Z,11.30
2023-03-03T07:51:27.902Z,10.30
2023-03-03T07:53:54.423Z,10.50
2023-03-03T07:56:20.956Z,11.00
2023-03-03T07:58:47.418Z,9.87
2023-03-03T08:01:13.890Z,10.30
2023-03-03T08:03:40.379Z,9.97
2023-03-03T08:06:06.896Z,10.33
2023-03-03T08:08:33.368Z,10.40
2023-03-03T08:10:59.837Z,10.30
2023-03-03T08:13:26.318Z,9.73
2023-03-03T08:15:52.846Z,10.10
2023-03-03T08:18:19.398Z,11.77
2023-03-03T08:20:46.006Z,9.77
2023-03-03T08:23:12.544Z,9.67
2023-03-03T08:25:39.112Z,12.20
2023-03-03T08:28:05.633Z,10.47
2023-03-03T08:30:32.162Z,10.30
2023-03-03T08:32:58.749Z,8.30
2023-03-03T08:35:25.406Z,9.47
2023-03-03T08:37:52.250Z,9.77
2023-03-03T08:40:18.774Z,9.37
2023-03-03T08:42:45.339Z,9.60
2023-03-03T08:45:11.882Z,10.63
2023-03-03T08:47:38.732Z,11.17
2023-03-03T08:50:05.330Z,12.40
2023-03-03T08:52:31.889Z,10.33
2023-03-03T08:54:58.405Z,11.40
2023-03-03T08:57:24.997Z,11.30
2023-03-03T08:59:51.506Z,9.97
2023-03-03T09:02:18.077Z,10.23
2023-03-03T09:04:44.601Z,10.50
2023-03-03T09:07:11.146Z,11.00
2023-03-03T09:09:37.646Z,11.63
2023-03-03T09:12:04.153Z,12.30
2023-03-03T09:14:30.685Z,10.73
2023-03-03T09:16:57.508Z,10.40
2023-03-03T09:19:24.156Z,11.50
2023-03-03T09:21:50.719Z,11.00
2023-03-03T09:24:17.220Z,12.80
2023-03-03T09:26:43.695Z,12.60
2023-03-03T09:29:10.388Z,11.43
2023-03-03T09:31:36.956Z,12.37
2023-03-03T09:34:03.947Z,12.60
2023-03-03T09:36:30.533Z,11.23
2023-03-03T09:38:57.036Z,12.50
2023-03-03T09:41:24.270Z,11.53
2023-03-03T09:43:50.858Z,11.10
2023-03-03T09:46:17.421Z,11.20
2023-03-03T09:48:43.999Z,11.00
2023-03-03T09:51:12.004Z,12.37
2023-03-03T09:53:38.536Z,10.70
2023-03-03T09:56:05.085Z,12.60
2023-03-03T09:58:31.680Z,10.03
2023-03-03T10:00:58.222Z,12.47
2023-03-03T10:03:24.757Z,11.87
2023-03-03T10:05:51.282Z,11.47
2023-03-03T10:08:17.810Z,10.93
2023-03-03T10:10:45.193Z,9.80
2023-03-03T10:13:11.710Z,9.70
2023-03-03T10:15:40.240Z,12.47
2023-03-03T10:18:06.900Z,10.80
2023-03-03T10:20:47.560Z,11.67
2023-03-03T10:23:20.746Z,11.60
2023-03-03T10:25:47.263Z,9.90
2023-03-03T10:28:13.782Z,10.40
2023-03-03T10:30:48.531Z,10.43
2023-03-03T10:33:21.539Z,9.53
2023-03-03T10:36:04.654Z,10.40
2023-03-03T10:38:33.399Z,10.30
2023-03-03T10:40:59.949Z,9.50
2023-03-03T10:43:32.135Z,9.60
2023-03-03T10:45:59.142Z,8.90
2023-03-03T10:48:25.652Z,10.80
2023-03-03T10:50:52.220Z,10.53
2023-03-03T10:53:18.755Z,9.63
2023-03-03T10:55:45.242Z,9.40
2023-03-03T10:58:11.822Z,9.40
2023-03-03T11:00:38.305Z,10.67
2023-03-03T11:03:04.868Z,9.17
2023-03-03T11:05:31.364Z,10.10
2023-03-03T11:07:57.924Z,12.35
2023-03-03T11:10:24.415Z,10.20
2023-03-03T11:12:51.217Z,10.67
2023-03-03T11:15:18.351Z,10.40
2023-03-03T11:17:44.883Z,10.27
2023-03-03T11:20:12.834Z,9.23
2023-03-03T11:22:39.419Z,9.47
2023-03-03T11:25:05.948Z,9.80
2023-03-03T11:27:32.486Z,8.97
2023-03-03T11:29:59.321Z,10.57
2023-03-03T11:32:25.933Z,9.40
2023-03-03T11:34:52.478Z,9.10
2023-03-03T11:37:18.996Z,9.07
2023-03-03T11:39:45.597Z,10.33
2023-03-03T11:42:12.086Z,10.70
2023-03-03T11:44:38.719Z,11.13
2023-03-03T11:47:05.320Z,10.17
2023-03-03T11:49:31.988Z,10.90
2023-03-03T11:54:24.467Z,9.30
2023-03-03T11:56:51.069Z,8.13
2023-03-03T11:59:17.615Z,8.70
2023-03-03T12:01:44.481Z,8.67
2023-03-03T12:04:11.005Z,10.60
2023-03-03T12:06:37.465Z,9.63
2023-03-03T12:09:04.042Z,11.27
2023-03-03T12:11:30.538Z,8.90
2023-03-03T12:13:57.774Z,8.80
2023-03-03T12:16:24.341Z,11.27
2023-03-03T12:18:50.861Z,9.25
2023-03-03T12:21:17.341Z,9.27
2023-03-03T12:23:43.993Z,10.77
2023-03-03T12:26:10.667Z,8.23
2023-03-03T12:28:37.432Z,8.93
2023-03-03T12:31:04.143Z,10.87
2023-03-03T12:33:30.940Z,10.97
2023-03-03T12:35:57.691Z,9.77
2023-03-03T12:38:24.381Z,12.93
2023-03-03T12:40:52.328Z,11.77
2023-03-03T12:43:18.962Z,12.73
2023-03-03T12:45:45.628Z,12.50
2023-03-03T12:48:12.304Z,11.47
2023-03-03T12:50:38.985Z,12.23
2023-03-03T12:53:09.807Z,12.33
2023-03-03T12:55:36.864Z,12.03
2023-03-03T12:58:03.496Z,10.07
2023-03-03T13:00:30.389Z,10.80
2023-03-03T13:02:57.980Z,11.20
2023-03-03T13:05:24.686Z,11.07
2023-03-03T13:07:51.465Z,10.03
2023-03-03T13:10:18.219Z,11.83
2023-03-03T13:12:44.964Z,11.73
2023-03-03T13:15:12.633Z,10.70
2023-03-03T13:17:42.277Z,11.00
2023-03-03T13:20:08.936Z,11.20
2023-03-03T13:22:35.582Z,10.83
2023-03-03T13:25:02.290Z,10.67
2023-03-03T13:27:28.947Z,10.60
2023-03-03T13:29:55.644Z,12.77
2023-03-03T13:32:22.692Z,11.40
2023-03-03T13:34:49.445Z,9.93
2023-03-03T13:37:16.096Z,11.10
2023-03-03T13:39:42.736Z,9.63
2023-03-03T13:42:09.436Z,10.10
2023-03-03T13:44:36.188Z,10.40
2023-03-03T13:47:02.836Z,8.93
2023-03-03T13:49:29.521Z,9.87
2023-03-03T13:51:56.203Z,10.77
2023-03-03T13:54:22.873Z,12.87
2023-03-03T13:56:49.702Z,11.07
2023-03-03T13:59:16.376Z,10.43
2023-03-03T14:01:43.022Z,10.30
2023-03-03T14:04:09.685Z,11.70
2023-03-03T14:06:38.761Z,11.20
2023-03-03T14:09:05.569Z,11.97
2023-03-03T14:11:32.227Z,11.17
2023-03-03T14:13:58.878Z,11.23
2023-03-03T14:16:25.566Z,10.10
2023-03-03T14:18:52.292Z,8.57
2023-03-03T14:21:19.024Z,8.27
2023-03-03T14:23:45.722Z,10.30
2023-03-03T14:26:12.384Z,8.80
2023-03-03T14:28:39.054Z,8.83
2023-03-03T14:31:05.873Z,8.70
2023-03-03T14:33:32.572Z,8.87
2023-03-03T14:35:59.450Z,8.73
2023-03-03T14:38:26.605Z,9.60
2023-03-03T14:40:53.232Z,8.70
2023-03-03T14:43:20.030Z,9.40
2023-03-03T14:45:46.813Z,7.70
2023-03-03T14:48:13.504Z,8.00
2023-03-03T14:50:40.184Z,8.20
2023-03-03T14:53:06.842Z,8.40
2023-03-03T14:55:33.927Z,8.27
2023-03-03T14:58:00.611Z,8.10
2023-03-03T15:00:27.394Z,8.73
2023-03-03T15:02:54.063Z,10.13
2023-03-03T15:05:20.789Z,9.43
2023-03-03T15:07:47.594Z,9.23
2023-03-03T15:10:14.539Z,10.20
2023-03-03T15:12:41.251Z,8.70
2023-03-03T15:15:11.262Z,9.50
2023-03-03T15:17:38.169Z,9.17
2023-03-03T15:20:06.561Z,9.80
2023-03-03T15:22:34.169Z,9.40
2023-03-03T15:25:00.802Z,10.27
2023-03-03T15:27:27.464Z,8.53
2023-03-03T15:29:54.094Z,8.90
2023-03-03T15:32:20.817Z,9.40
2023-03-03T15:34:48.920Z,8.67
2023-03-03T15:37:15.581Z,8.13
2023-03-03T15:39:42.294Z,9.43
2023-03-03T15:42:08.985Z,8.43
2023-03-03T15:44:35.727Z,7.90
2023-03-03T15:47:03.482Z,10.27
2023-03-03T15:49:30.148Z,12.87
2023-03-03T15:52:03.169Z,8.53
2023-03-03T15:54:30.936Z,7.27
2023-03-03T15:56:58.538Z,10.10
2023-03-03T15:59:25.202Z,9.67
2023-03-03T16:01:51.761Z,12.73
2023-03-03T16:04:18.333Z,8.63
2023-03-03T16:06:44.801Z,8.53
2023-03-03T16:09:11.301Z,10.97
2023-03-03T16:11:38.085Z,9.87
2023-03-03T16:14:04.567Z,10.47
2023-03-03T16:16:31.110Z,10.90
2023-03-03T16:18:58.624Z,10.30
2023-03-03T16:21:25.248Z,9.43
2023-03-03T16:23:51.758Z,9.67
2023-03-03T16:26:18.345Z,9.00
2023-03-03T16:28:44.849Z,9.57
2023-03-03T16:31:11.438Z,9.20
2023-03-03T16:33:43.694Z,9.13
2023-03-03T16:36:10.169Z,10.30
2023-03-03T16:38:36.675Z,9.77
2023-03-03T16:41:03.172Z,10.07
2023-03-03T16:43:29.628Z,9.67
2023-03-03T16:45:56.177Z,11.93
2023-03-03T16:48:22.877Z,9.80
2023-03-03T16:50:49.444Z,11.57
2023-03-03T16:53:15.990Z,11.70
2023-03-03T16:55:42.464Z,10.40
2023-03-03T16:58:09.326Z,11.00
2023-03-03T17:00:35.812Z,10.30
2023-03-03T17:03:02.284Z,11.77
2023-03-03T17:05:28.829Z,10.57
2023-03-03T17:07:55.297Z,10.67
2023-03-03T17:10:22.933Z,9.80
2023-03-03T17:12:49.408Z,11.63
2023-03-03T17:15:15.913Z,10.20
2023-03-03T17:17:42.448Z,9.17
2023-03-03T17:20:08.980Z,9.20
2023-03-03T17:22:35.486Z,10.90
2023-03-03T17:25:02.032Z,9.30
2023-03-03T17:27:28.525Z,8.90
2023-03-03T17:29:55.116Z,10.30
2023-03-03T17:32:21.647Z,8.90
2023-03-03T17:34:48.250Z,11.10
2023-03-03T17:37:14.864Z,10.50
2023-03-03T17:39:41.412Z,10.50
2023-03-03T17:42:07.878Z,9.70
2023-03-03T17:44:34.846Z,8.40
2023-03-03T17:47:01.367Z,8.43
2023-03-03T17:49:27.838Z,10.53
2023-03-03T17:51:54.436Z,12.03
2023-03-03T17:54:20.924Z,9.70
2023-03-03T17:56:47.426Z,9.80
2023-03-03T17:59:13.996Z,9.73
2023-03-03T18:01:40.494Z,9.90
2023-03-03T18:04:06.990Z,11.33
2023-03-03T18:06:33.488Z,8.40
2023-03-03T18:09:13.311Z,10.77
2023-03-03T18:11:40.844Z,11.70
2023-03-03T18:14:09.916Z,16.93
2023-03-03T18:16:36.466Z,17.37
2023-03-03T18:19:02.944Z,18.03
2023-03-03T18:21:29.495Z,16.90
2023-03-03T18:23:56.011Z,14.57
2023-03-03T18:26:22.486Z,12.37
2023-03-03T18:28:49.485Z,14.40
2023-03-03T18:31:16.059Z,14.87
2023-03-03T18:33:43.396Z,12.87
2023-03-03T18:36:10.011Z,12.13
2023-03-03T18:38:36.626Z,12.67
2023-03-03T18:41:03.132Z,11.93
2023-03-03T18:43:29.596Z,10.43
2023-03-03T18:45:56.122Z,10.13
2023-03-03T18:48:22.663Z,11.43
2023-03-03T18:50:49.229Z,12.30
2023-03-03T18:53:15.745Z,12.43
2023-03-03T18:55:42.253Z,11.80
2023-03-03T18:58:08.726Z,11.50
2023-03-03T19:00:35.213Z,12.40
2023-03-03T19:03:01.696Z,12.43
2023-03-03T19:05:28.980Z,12.33
2023-03-03T19:07:55.520Z,12.93
2023-03-03T19:10:22.085Z,11.70
2023-03-03T19:12:48.656Z,13.30
2023-03-03T19:15:15.184Z,13.67
2023-03-03T19:17:41.672Z,14.10
2023-03-03T19:20:08.161Z,11.67
2023-03-03T19:22:34.660Z,13.10
2023-03-03T19:25:01.147Z,11.30
2023-03-03T19:27:27.641Z,12.17
2023-03-03T19:29:54.128Z,10.50
2023-03-03T19:32:20.732Z,12.97
2023-03-03T19:34:47.237Z,11.90
2023-03-03T19:37:13.747Z,12.03
2023-03-03T19:39:40.206Z,10.87
2023-03-03T19:42:06.753Z,11.57
2023-03-03T19:44:33.228Z,10.13
2023-03-03T19:46:59.801Z,11.63
2023-03-03T19:49:26.389Z,14.47
2023-03-03T19:51:52.967Z,14.00
2023-03-03T19:54:19.457Z,13.87
2023-03-03T19:56:45.955Z,14.57
2023-03-03T19:59:13.654Z,13.70
2023-03-03T20:01:40.172Z,14.77
2023-03-03T20:04:06.703Z,13.63
2023-03-03T20:06:33.276Z,14.20
2023-03-03T20:08:59.811Z,13.20
2023-03-03T20:11:28.352Z,13.47
2023-03-03T20:13:54.881Z,14.33
2023-03-03T20:16:22.372Z,14.63
2023-03-03T20:18:49.234Z,13.23
2023-03-03T20:21:16.297Z,13.90
2023-03-03T20:23:42.778Z,13.87
2023-03-03T20:26:09.312Z,13.27
2023-03-03T20:28:35.810Z,11.87
2023-03-03T20:31:02.461Z,12.40
2023-03-03T20:33:28.951Z,13.53
2023-03-03T20:35:55.537Z,12.50
2023-03-03T20:38:22.171Z,14.67
2023-03-03T20:40:48.650Z,17.10
2023-03-03T20:43:15.166Z,17.30
2023-03-03T20:45:41.671Z,16.57
2023-03-03T20:48:09.415Z,14.10
2023-03-03T20:50:37.531Z,13.23
2023-03-03T20:53:05.259Z,14.50
2023-03-03T20:55:31.736Z,13.70
2023-03-03T20:57:58.239Z,14.10
2023-03-03T21:00:27.746Z,14.10
2023-03-03T21:02:54.272Z,13.10
2023-03-03T21:05:22.268Z,13.10
2023-03-03T21:07:48.772Z,12.83
2023-03-03T21:10:16.313Z,13.40
2023-03-03T21:12:42.818Z,12.90
2023-03-03T21:15:09.335Z,13.90
2023-03-03T21:17:35.792Z,14.97
2023-03-03T21:20:02.298Z,15.00
2023-03-03T21:22:28.832Z,11.40
2023-03-03T21:24:55.507Z,15.73
2023-03-03T21:27:22.042Z,16.50
2023-03-03T21:29:48.557Z,16.77
2023-03-03T21:32:15.135Z,19.30
2023-03-03T21:34:41.915Z,15.33
2023-03-03T21:37:08.464Z,17.30
2023-03-03T21:39:35.055Z,14.33
2023-03-03T21:42:01.633Z,14.47
2023-03-03T21:44:28.160Z,19.87
2023-03-03T21:46:55.523Z,15.33
2023-03-03T21:49:23.499Z,15.67
2023-03-03T21:51:50.026Z,15.80
2023-03-03T21:54:16.566Z,17.93
2023-03-03T21:56:43.053Z,17.77
2023-03-03T21:59:09.628Z,18.60
2023-03-03T22:01:38.254Z,18.20
2023-03-03T22:04:05.698Z,18.87
2023-03-03T22:06:32.184Z,18.90
2023-03-03T22:08:58.686Z,14.50
2023-03-03T22:11:25.226Z,14.77
2023-03-03T22:13:51.778Z,14.63
2023-03-03T22:16:18.335Z,14.23
2023-03-03T22:18:44.885Z,14.93
2023-03-03T22:21:11.354Z,18.83
2023-03-03T22:23:37.869Z,18.00
2023-03-03T22:26:04.362Z,20.30
2023-03-03T22:28:30.903Z,17.70
2023-03-03T22:30:57.552Z,17.70
2023-03-03T22:33:24.172Z,14.23
2023-03-03T22:35:50.660Z,17.70
2023-03-03T22:38:17.155Z,16.87
2023-03-03T22:40:43.675Z,18.70
2023-03-03T22:43:14.523Z,20.90
2023-03-03T22:45:40.998Z,20.50
2023-03-03T22:48:07.517Z,21.20
2023-03-03T22:50:39.287Z,21.13
2023-03-03T22:53:05.857Z,18.13
2023-03-03T22:55:36.720Z,18.20
2023-03-03T22:58:03.591Z,17.70
2023-03-03T23:00:30.122Z,18.57
2023-03-03T23:02:56.660Z,17.13
2023-03-03T23:05:23.704Z,16.20
2023-03-03T23:07:50.198Z,15.43
2023-03-03T23:10:16.693Z,16.10
2023-03-03T23:12:43.238Z,15.90
2023-03-03T23:15:13.270Z,15.20
2023-03-03T23:17:40.014Z,15.57
2023-03-03T23:20:06.503Z,16.73
2023-03-03T23:22:32.964Z,16.80
2023-03-03T23:24:59.455Z,14.63
2023-03-03T23:27:25.934Z,16.00
2023-03-03T23:29:52.593Z,14.37
2023-03-03T23:32:19.116Z,14.30
2023-03-03T23:34:45.588Z,12.80
2023-03-03T23:37:12.177Z,15.73
2023-03-03T23:39:40.424Z,13.70
2023-03-03T23:42:06.943Z,14.80
2023-03-03T23:44:33.420Z,15.27
2023-03-03T23:47:00.144Z,16.70
2023-03-03T23:49:26.627Z,16.83
2023-03-03T23:51:53.095Z,15.17
2023-03-03T23:56:53.914Z,15.70
2023-03-03T23:59:20.416Z,15.70
